createdAt,value
2023-02-06T00:00:55.738Z,0.70
2023-02-06T00:03:22.508Z,0.35
2023-02-06T00:05:56.552Z,0.32
2023-02-06T00:08:24.878Z,0.56
2023-02-06T00:10:51.660Z,0.35
2023-02-06T00:13:18.282Z,0.33
2023-02-06T00:15:45.056Z,0.52
2023-02-06T00:18:11.940Z,0.57
2023-02-06T00:20:41.941Z,0.46
2023-02-06T00:23:08.680Z,0.33
2023-02-06T00:25:37.117Z,0.51
2023-02-06T00:28:04.251Z,0.48
2023-02-06T00:30:30.970Z,0.28
2023-02-06T00:32:57.691Z,0.43
2023-02-06T00:35:24.447Z,0.63
2023-02-06T00:37:51.245Z,0.30
2023-02-06T00:40:18.952Z,0.43
2023-02-06T00:42:47.026Z,0.41
2023-02-06T00:45:14.059Z,0.31
2023-02-06T00:47:40.712Z,0.59
2023-02-06T00:50:07.889Z,0.46
2023-02-06T00:52:34.543Z,0.53
2023-02-06T00:55:01.230Z,0.28
2023-02-06T00:57:27.898Z,0.30
2023-02-06T01:00:06.487Z,0.44
2023-02-06T01:02:33.228Z,0.28
2023-02-06T01:04:59.937Z,0.39
2023-02-06T01:07:26.784Z,0.30
2023-02-06T01:09:53.431Z,0.07
2023-02-06T01:12:20.913Z,0.44
2023-02-06T01:14:47.687Z,0.53
2023-02-06T01:17:15.822Z,0.46
2023-02-06T01:19:42.468Z,0.36
2023-02-06T01:22:09.121Z,0.27
2023-02-06T01:24:36.589Z,0.16
2023-02-06T01:27:03.425Z,0.37
2023-02-06T01:29:30.110Z,0.23
2023-02-06T01:31:56.751Z,0.30
2023-02-06T01:34:24.848Z,0.15
2023-02-06T01:36:51.574Z,0.24
2023-02-06T01:39:28.074Z,-0.04
2023-02-06T01:41:54.861Z,0.07
2023-02-06T01:44:23.347Z,-0.21
2023-02-06T01:46:51.540Z,0.04
2023-02-06T01:49:21.630Z,-0.01
2023-02-06T01:51:51.481Z,0.16
2023-02-06T01:54:18.433Z,0.02
2023-02-06T01:56:54.323Z,-0.14
2023-02-06T01:59:21.835Z,-0.05
2023-02-06T02:01:48.707Z,0.01
2023-02-06T02:04:19.027Z,-0.02
2023-02-06T02:06:52.690Z,-0.29
2023-02-06T02:09:20.344Z,-0.06
2023-02-06T02:11:47.004Z,-0.03
2023-02-06T02:14:15.636Z,0.02
2023-02-06T02:16:52.400Z,-0.32
2023-02-06T02:20:03.108Z,-0.33
2023-02-06T02:22:44.183Z,-0.06
2023-02-06T02:25:32.061Z,-0.09
2023-02-06T02:28:22.299Z,-0.20
2023-02-06T02:31:20.518Z,-0.27
2023-02-06T02:34:20.708Z,-0.26
2023-02-06T02:36:52.396Z,-0.46
2023-02-06T02:39:27.283Z,-0.58
2023-02-06T02:41:59.855Z,-0.37
2023-02-06T02:44:34.019Z,-0.70
2023-02-06T02:47:03.800Z,-0.62
2023-02-06T02:49:35.342Z,-0.61
2023-02-06T02:52:04.348Z,-0.86
2023-02-06T02:54:31.094Z,-0.84
2023-02-06T02:57:02.668Z,-0.85
2023-02-06T02:59:35.748Z,-0.75
2023-02-06T03:02:06.055Z,-0.70
2023-02-06T03:04:39.717Z,-0.51
2023-02-06T03:07:15.703Z,-0.66
2023-02-06T03:09:52.536Z,-0.84
2023-02-06T03:12:24.218Z,-0.84
2023-02-06T03:14:55.604Z,-0.90
2023-02-06T03:17:31.647Z,-0.74
2023-02-06T03:20:05.026Z,-0.86
2023-02-06T03:22:35.710Z,-0.93
2023-02-06T03:25:04.418Z,-0.65
2023-02-06T03:27:32.586Z,-0.86
2023-02-06T03:30:03.260Z,-0.74
2023-02-06T03:32:32.808Z,-0.93
2023-02-06T03:35:01.429Z,-0.87
2023-02-06T03:37:34.694Z,-0.95
2023-02-06T03:40:05.900Z,-0.77
2023-02-06T03:42:36.311Z,-0.80
2023-02-06T03:45:06.698Z,-0.94
2023-02-06T03:47:35.537Z,-0.82
2023-02-06T03:50:02.349Z,-0.81
2023-02-06T03:52:35.791Z,-0.65
2023-02-06T03:55:16.609Z,-0.71
2023-02-06T03:57:46.506Z,-0.93
2023-02-06T04:00:14.437Z,-0.94
2023-02-06T04:02:42.313Z,-0.72
2023-02-06T04:05:09.229Z,-0.69
2023-02-06T04:07:36.129Z,-0.81
2023-02-06T04:10:04.804Z,-0.86
2023-02-06T04:12:35.486Z,-0.79
2023-02-06T04:15:02.144Z,-0.89
2023-02-06T04:17:46.273Z,-0.75
2023-02-06T04:20:15.611Z,-0.91
2023-02-06T04:22:42.334Z,-1.00
2023-02-06T04:25:10.453Z,-1.02
2023-02-06T04:27:37.995Z,-1.12
2023-02-06T04:30:11.706Z,-1.15
2023-02-06T04:32:38.436Z,-0.94
2023-02-06T04:35:05.774Z,-1.01
2023-02-06T04:37:32.480Z,-0.95
2023-02-06T04:39:59.191Z,-0.95
2023-02-06T04:42:27.410Z,-1.02
2023-02-06T04:44:54.127Z,-0.85
2023-02-06T04:47:20.780Z,-0.78
2023-02-06T04:49:47.484Z,-0.78
2023-02-06T04:52:14.109Z,-1.45
2023-02-06T04:54:40.767Z,-1.05
2023-02-06T04:57:07.422Z,-0.89
2023-02-06T04:59:35.452Z,-1.07
2023-02-06T05:02:02.106Z,-0.91
2023-02-06T05:04:28.718Z,-0.98
2023-02-06T05:06:55.344Z,-1.10
2023-02-06T05:09:22.036Z,-1.07
2023-02-06T05:11:48.675Z,-1.14
2023-02-06T05:14:15.272Z,-1.02
2023-02-06T05:16:43.296Z,-0.95
2023-02-06T05:19:10.030Z,-1.16
2023-02-06T05:21:36.620Z,-0.94
2023-02-06T05:24:03.578Z,-1.03
2023-02-06T05:26:30.208Z,-0.89
2023-02-06T05:28:56.888Z,-1.08
2023-02-06T05:31:26.684Z,-0.78
2023-02-06T05:33:54.958Z,-0.80
2023-02-06T05:36:22.838Z,-0.74
2023-02-06T05:38:50.375Z,-0.70
2023-02-06T05:41:17.321Z,-0.67
2023-02-06T05:43:44.263Z,-0.68
2023-02-06T05:46:11.035Z,-0.58
2023-02-06T05:48:37.770Z,-1.20
2023-02-06T05:51:06.118Z,-0.93
2023-02-06T05:53:32.840Z,-1.00
2023-02-06T05:55:59.516Z,-0.93
2023-02-06T05:58:26.226Z,-1.18
2023-02-06T06:00:52.927Z,-1.18
2023-02-06T06:03:19.593Z,-1.06
2023-02-06T06:05:46.278Z,-1.02
2023-02-06T06:08:14.375Z,-0.96
2023-02-06T06:10:41.010Z,-1.24
2023-02-06T06:13:07.726Z,-1.20
2023-02-06T06:15:34.797Z,-1.01
2023-02-06T06:18:01.629Z,-1.09
2023-02-06T06:20:28.296Z,-1.13
2023-02-06T06:22:54.975Z,-1.02
2023-02-06T06:25:23.045Z,-0.87
2023-02-06T06:27:49.705Z,-0.86
2023-02-06T06:30:16.830Z,-0.85
2023-02-06T06:32:43.520Z,-1.02
2023-02-06T06:35:10.138Z,-0.87
2023-02-06T06:37:36.989Z,-1.05
2023-02-06T06:40:04.152Z,-1.04
2023-02-06T06:42:32.209Z,-1.09
2023-02-06T06:44:58.912Z,-0.97
2023-02-06T06:47:25.623Z,-1.07
2023-02-06T06:49:52.274Z,-1.15
2023-02-06T06:52:25.069Z,-1.15
2023-02-06T06:54:52.765Z,-0.93
2023-02-06T06:57:19.995Z,-0.84
2023-02-06T06:59:48.281Z,-1.04
2023-02-06T07:02:15.295Z,-1.12
2023-02-06T07:04:42.225Z,-1.19
2023-02-06T07:07:09.296Z,-0.96
2023-02-06T07:09:36.001Z,-1.06
2023-02-06T07:12:03.058Z,-1.13
2023-02-06T07:14:29.740Z,-0.96
2023-02-06T07:16:57.819Z,-0.72
2023-02-06T07:19:24.599Z,-0.69
2023-02-06T07:21:51.345Z,-0.77
2023-02-06T07:24:18.259Z,-0.89
2023-02-06T07:26:48.015Z,-1.04
2023-02-06T07:29:14.774Z,-0.82
2023-02-06T07:31:41.563Z,-0.82
2023-02-06T07:34:10.068Z,-0.43
2023-02-06T07:36:36.788Z,-0.39
2023-02-06T07:39:04.130Z,-0.04
2023-02-06T07:41:30.979Z,0.16
2023-02-06T07:43:57.716Z,0.18
2023-02-06T07:46:24.575Z,0.53
2023-02-06T07:48:51.497Z,0.38
2023-02-06T07:51:19.675Z,0.58
2023-02-06T07:53:46.351Z,0.63
2023-02-06T07:56:15.235Z,0.51
2023-02-06T07:58:42.557Z,0.57
2023-02-06T08:01:10.155Z,0.78
2023-02-06T08:03:37.379Z,0.77
2023-02-06T08:06:24.560Z,0.87
2023-02-06T08:08:51.877Z,0.94
2023-02-06T08:11:21.097Z,1.00
2023-02-06T08:13:48.395Z,1.04
2023-02-06T08:16:17.181Z,1.05
2023-02-06T08:18:43.937Z,1.08
2023-02-06T08:21:12.424Z,1.15
2023-02-06T08:23:53.346Z,1.27
2023-02-06T08:26:20.041Z,1.29
2023-02-06T08:28:48.831Z,1.16
2023-02-06T08:31:17.758Z,1.17
2023-02-06T08:33:45.028Z,1.25
2023-02-06T08:36:13.085Z,1.17
2023-02-06T08:38:41.344Z,1.36
2023-02-06T08:41:18.274Z,1.46
2023-02-06T08:43:45.583Z,1.64
2023-02-06T08:46:12.434Z,1.80
2023-02-06T08:48:39.133Z,1.99
2023-02-06T08:51:07.730Z,1.93
2023-02-06T08:53:34.755Z,2.08
2023-02-06T08:56:05.607Z,2.25
2023-02-06T08:58:32.838Z,2.34
2023-02-06T09:01:05.232Z,2.22
2023-02-06T09:03:31.871Z,2.07
2023-02-06T09:06:09.575Z,2.21
2023-02-06T09:08:37.654Z,2.30
2023-02-06T09:11:09.940Z,2.35
2023-02-06T09:13:36.786Z,2.63
2023-02-06T09:16:04.008Z,2.61
2023-02-06T09:18:30.668Z,2.61
2023-02-06T09:21:09.175Z,2.70
2023-02-06T09:23:35.837Z,2.89
2023-02-06T09:26:02.525Z,2.93
2023-02-06T09:28:30.885Z,2.74
2023-02-06T09:30:57.566Z,3.06
2023-02-06T09:33:24.437Z,3.06
2023-02-06T09:36:12.156Z,2.71
2023-02-06T09:38:42.411Z,2.60
2023-02-06T09:41:15.349Z,2.70
2023-02-06T09:43:49.916Z,2.84
2023-02-06T09:46:19.579Z,3.00
2023-02-06T09:48:46.090Z,2.98
2023-02-06T09:51:25.899Z,2.88
2023-02-06T09:54:01.323Z,3.00
2023-02-06T09:56:36.387Z,2.94
2023-02-06T09:59:13.166Z,3.01
2023-02-06T10:02:00.782Z,2.68
2023-02-06T10:04:42.737Z,2.71
2023-02-06T10:07:22.246Z,2.75
2023-02-06T10:09:54.149Z,2.72
2023-02-06T10:12:26.773Z,2.88
2023-02-06T10:15:00.749Z,3.15
2023-02-06T10:17:39.957Z,3.03
2023-02-06T10:20:13.178Z,2.84
2023-02-06T10:22:45.386Z,2.73
2023-02-06T10:25:20.058Z,2.88
2023-02-06T10:27:52.696Z,2.87
2023-02-06T10:30:34.236Z,2.80
2023-02-06T10:33:14.381Z,2.87
2023-02-06T10:35:56.434Z,2.87
2023-02-06T10:38:46.782Z,2.32
2023-02-06T10:41:27.074Z,1.92
2023-02-06T10:44:04.160Z,2.66
2023-02-06T10:46:44.659Z,2.64
2023-02-06T10:49:19.081Z,2.76
2023-02-06T10:51:48.593Z,2.59
2023-02-06T10:54:19.058Z,2.62
2023-02-06T10:56:47.665Z,2.80
2023-02-06T10:59:21.969Z,2.52
2023-02-06T11:01:55.725Z,2.39
2023-02-06T11:04:29.459Z,2.15
2023-02-06T11:07:00.915Z,1.88
2023-02-06T11:09:27.975Z,1.98
2023-02-06T11:11:57.164Z,2.20
2023-02-06T11:14:27.699Z,2.61
2023-02-06T11:16:59.455Z,2.40
2023-02-06T11:19:28.754Z,2.55
2023-02-06T11:22:07.375Z,2.61
2023-02-06T11:24:35.178Z,2.65
2023-02-06T11:27:11.442Z,2.77
2023-02-06T11:29:45.239Z,2.65
2023-02-06T11:32:35.091Z,2.55
2023-02-06T11:35:06.140Z,2.42
2023-02-06T11:37:35.764Z,2.45
2023-02-06T11:40:22.951Z,2.33
2023-02-06T11:42:52.003Z,2.42
2023-02-06T11:45:25.216Z,2.77
2023-02-06T11:47:53.690Z,2.35
2023-02-06T11:50:25.109Z,2.53
2023-02-06T11:52:59.248Z,2.60
2023-02-06T11:55:28.457Z,2.86
2023-02-06T11:58:04.362Z,2.91
2023-02-06T12:00:31.184Z,3.01
2023-02-06T12:02:59.351Z,2.91
2023-02-06T12:05:29.070Z,3.20
2023-02-06T12:07:57.746Z,3.42
2023-02-06T12:10:26.048Z,3.42
2023-02-06T12:12:57.850Z,3.37
2023-02-06T12:15:45.611Z,3.26
2023-02-06T12:18:18.619Z,2.95
2023-02-06T12:20:50.047Z,2.92
2023-02-06T12:23:22.188Z,3.02
2023-02-06T12:25:52.875Z,3.22
2023-02-06T12:28:25.037Z,3.33
2023-02-06T12:30:55.366Z,3.30
2023-02-06T12:33:28.103Z,3.11
2023-02-06T12:36:00.252Z,3.25
2023-02-06T12:38:39.570Z,3.22
2023-02-06T12:41:20.104Z,3.62
2023-02-06T12:43:53.631Z,3.82
2023-02-06T12:46:27.946Z,3.28
2023-02-06T12:49:07.842Z,3.25
2023-02-06T12:51:40.440Z,3.32
2023-02-06T12:54:15.746Z,3.67
2023-02-06T12:56:47.459Z,3.66
2023-02-06T12:59:55.573Z,3.44
2023-02-06T13:02:41.816Z,3.32
2023-02-06T13:05:20.296Z,3.56
2023-02-06T13:07:50.039Z,3.77
2023-02-06T13:10:20.267Z,3.76
2023-02-06T13:12:53.683Z,3.88
2023-02-06T13:15:22.649Z,3.89
2023-02-06T13:17:49.351Z,3.93
2023-02-06T13:20:20.074Z,3.62
2023-02-06T13:22:48.906Z,3.33
2023-02-06T13:25:52.180Z,3.54
2023-02-06T13:28:42.712Z,3.36
2023-02-06T13:31:26.179Z,3.43
2023-02-06T13:33:58.074Z,3.25
2023-02-06T13:36:42.005Z,3.63
2023-02-06T13:39:23.637Z,3.81
2023-02-06T13:41:51.161Z,3.83
2023-02-06T13:44:25.642Z,3.94
2023-02-06T13:47:26.825Z,3.91
2023-02-06T13:50:24.129Z,3.92
2023-02-06T13:53:05.497Z,3.69
2023-02-06T13:55:44.454Z,3.85
2023-02-06T13:58:28.511Z,3.91
2023-02-06T14:00:57.058Z,3.99
2023-02-06T14:03:29.203Z,3.98
2023-02-06T14:06:07.326Z,3.90
2023-02-06T14:08:46.749Z,3.88
2023-02-06T14:11:29.977Z,3.92
2023-02-06T14:14:27.096Z,4.13
2023-02-06T14:17:03.405Z,4.18
2023-02-06T14:19:38.765Z,4.11
2023-02-06T14:22:18.496Z,4.30
2023-02-06T14:25:01.041Z,4.27
2023-02-06T14:27:37.338Z,4.30
2023-02-06T14:30:16.353Z,4.17
2023-02-06T14:32:50.207Z,4.10
2023-02-06T14:35:31.523Z,4.11
2023-02-06T14:38:21.342Z,4.24
2023-02-06T14:40:53.358Z,4.20
2023-02-06T14:43:24.533Z,4.32
2023-02-06T14:46:06.468Z,4.40
2023-02-06T14:48:39.977Z,4.40
2023-02-06T14:51:09.052Z,4.43
2023-02-06T14:53:37.365Z,4.33
2023-02-06T14:56:16.312Z,4.40
2023-02-06T14:58:44.176Z,4.35
2023-02-06T15:01:19.678Z,4.41
2023-02-06T15:03:48.060Z,4.43
2023-02-06T15:06:25.808Z,4.30
2023-02-06T15:08:52.487Z,4.30
2023-02-06T15:11:23.354Z,4.21
2023-02-06T15:13:51.911Z,4.08
2023-02-06T15:16:18.662Z,4.21
2023-02-06T15:18:45.401Z,4.22
2023-02-06T15:21:14.904Z,4.14
2023-02-06T15:23:58.139Z,4.05
2023-02-06T15:26:34.926Z,4.08
2023-02-06T15:29:05.085Z,3.86
2023-02-06T15:31:32.168Z,3.88
2023-02-06T15:34:00.671Z,3.85
2023-02-06T15:36:31.374Z,3.67
2023-02-06T15:38:58.647Z,3.84
2023-02-06T15:41:35.241Z,3.67
2023-02-06T15:44:06.732Z,3.59
2023-02-06T15:46:33.854Z,3.41
2023-02-06T15:49:00.537Z,3.40
2023-02-06T15:51:29.411Z,3.25
2023-02-06T15:54:07.978Z,3.23
2023-02-06T15:56:39.954Z,3.33
2023-02-06T15:59:16.255Z,3.25
2023-02-06T16:01:43.635Z,3.05
2023-02-06T16:04:16.780Z,3.14
2023-02-06T16:06:43.674Z,3.15
2023-02-06T16:09:21.323Z,2.95
2023-02-06T16:11:52.338Z,2.70
2023-02-06T16:14:23.273Z,2.70
2023-02-06T16:16:58.114Z,2.71
2023-02-06T16:19:38.027Z,2.78
2023-02-06T16:22:05.903Z,2.73
2023-02-06T16:24:32.561Z,2.50
2023-02-06T16:27:15.267Z,2.62
2023-02-06T16:29:47.294Z,2.49
2023-02-06T16:32:17.352Z,2.58
2023-02-06T16:34:45.334Z,2.42
2023-02-06T16:37:14.015Z,2.49
2023-02-06T16:39:41.677Z,2.43
2023-02-06T16:42:13.122Z,2.45
2023-02-06T16:44:45.419Z,2.19
2023-02-06T16:47:17.289Z,2.23
2023-02-06T16:49:44.975Z,2.25
2023-02-06T16:52:18.119Z,2.08
2023-02-06T16:54:45.540Z,2.20
2023-02-06T16:57:20.413Z,2.10
2023-02-06T16:59:47.133Z,2.03
2023-02-06T17:02:14.226Z,1.89
2023-02-06T17:04:41.385Z,1.77
2023-02-06T17:07:13.743Z,1.71
2023-02-06T17:09:41.501Z,1.63
2023-02-06T17:12:13.784Z,1.58
2023-02-06T17:14:40.747Z,1.63
2023-02-06T17:17:09.003Z,1.57
2023-02-06T17:19:35.683Z,1.54
2023-02-06T17:22:02.304Z,1.45
2023-02-06T17:24:28.955Z,1.46
2023-02-06T17:26:55.623Z,1.46
2023-02-06T17:29:23.605Z,1.51
2023-02-06T17:31:50.258Z,1.52
2023-02-06T17:34:16.914Z,1.25
2023-02-06T17:36:43.581Z,1.33
2023-02-06T17:39:11.992Z,1.29
2023-02-06T17:41:38.654Z,1.34
2023-02-06T17:44:05.453Z,1.17
2023-02-06T17:46:33.584Z,1.24
2023-02-06T17:49:00.226Z,1.06
2023-02-06T17:51:26.829Z,1.00
2023-02-06T17:53:53.526Z,1.14
2023-02-06T17:56:20.367Z,1.18
2023-02-06T17:58:47.089Z,1.02
2023-02-06T18:01:15.415Z,1.15
2023-02-06T18:03:44.585Z,1.07
2023-02-06T18:06:12.292Z,1.18
2023-02-06T18:08:40.276Z,1.04
2023-02-06T18:11:08.729Z,0.93
2023-02-06T18:13:35.364Z,1.03
2023-02-06T18:16:02.043Z,0.99
2023-02-06T18:18:28.806Z,0.76
2023-02-06T18:20:56.897Z,0.84
2023-02-06T18:23:23.642Z,0.98
2023-02-06T18:25:50.308Z,0.85
2023-02-06T18:28:17.243Z,0.97
2023-02-06T18:30:44.532Z,1.03
2023-02-06T18:33:11.822Z,0.84
2023-02-06T18:35:39.381Z,0.82
2023-02-06T18:38:07.519Z,0.75
2023-02-06T18:40:34.251Z,0.56
2023-02-06T18:43:01.029Z,0.70
2023-02-06T18:45:27.824Z,0.73
2023-02-06T18:47:54.470Z,0.68
2023-02-06T18:50:23.974Z,0.79
2023-02-06T18:52:50.673Z,0.65
2023-02-06T18:55:19.112Z,0.62
2023-02-06T18:57:45.867Z,0.74
2023-02-06T19:00:14.802Z,0.74
2023-02-06T19:02:41.841Z,0.76
2023-02-06T19:05:08.924Z,0.74
2023-02-06T19:07:35.681Z,0.74
2023-02-06T19:10:05.291Z,0.76
2023-02-06T19:12:33.188Z,0.67
2023-02-06T19:14:59.912Z,0.50
2023-02-06T19:17:27.970Z,0.42
2023-02-06T19:19:54.827Z,0.55
2023-02-06T19:22:21.837Z,0.68
2023-02-06T19:24:48.748Z,0.69
2023-02-06T19:27:15.363Z,0.41
2023-02-06T19:29:43.560Z,0.05
2023-02-06T19:32:10.358Z,0.35
2023-02-06T19:34:39.052Z,0.39
2023-02-06T19:37:07.811Z,0.33
2023-02-06T19:39:35.102Z,0.41
2023-02-06T19:42:02.212Z,0.29
2023-02-06T19:44:28.914Z,0.28
2023-02-06T19:46:57.570Z,0.16
2023-02-06T19:49:25.057Z,0.35
2023-02-06T19:51:51.978Z,0.33
2023-02-06T19:54:19.053Z,0.17
2023-02-06T19:56:47.294Z,0.28
2023-02-06T19:59:15.999Z,0.39
2023-02-06T20:01:42.645Z,0.51
2023-02-06T20:04:21.563Z,0.15
2023-02-06T20:06:48.602Z,0.38
2023-02-06T20:09:16.058Z,0.36
2023-02-06T20:11:43.004Z,0.41
2023-02-06T20:14:09.723Z,0.21
2023-02-06T20:16:39.909Z,0.30
2023-02-06T20:19:07.460Z,0.35
2023-02-06T20:21:46.602Z,0.31
2023-02-06T20:24:15.225Z,0.44
2023-02-06T20:26:43.070Z,0.34
2023-02-06T20:29:16.376Z,0.38
2023-02-06T20:31:43.235Z,0.16
2023-02-06T20:34:09.980Z,0.39
2023-02-06T20:36:38.514Z,0.41
2023-02-06T20:39:05.136Z,0.26
2023-02-06T20:41:32.681Z,0.26
2023-02-06T20:44:00.735Z,0.22
2023-02-06T20:46:28.721Z,0.21
2023-02-06T20:48:57.496Z,-0.01
2023-02-06T20:51:24.951Z,0.24
2023-02-06T20:53:53.172Z,0.24
2023-02-06T20:56:21.344Z,0.14
2023-02-06T20:58:48.753Z,0.06
2023-02-06T21:01:17.699Z,0.16
2023-02-06T21:03:45.563Z,0.16
2023-02-06T21:06:13.014Z,0.08
2023-02-06T21:08:40.042Z,0.04
2023-02-06T21:11:08.671Z,0.07
2023-02-06T21:13:35.309Z,0.00
2023-02-06T21:16:02.472Z,-0.05
2023-02-06T21:18:31.158Z,-0.21
2023-02-06T21:21:05.033Z,-0.27
2023-02-06T21:23:31.646Z,-0.24
2023-02-06T21:25:58.338Z,-0.25
2023-02-06T21:28:26.471Z,-0.06
2023-02-06T21:30:59.795Z,-0.02
2023-02-06T21:33:26.706Z,-0.09
2023-02-06T21:35:53.823Z,0.05
2023-02-06T21:38:20.984Z,-0.15
2023-02-06T21:40:47.777Z,-0.14
2023-02-06T21:43:14.479Z,-0.23
2023-02-06T21:45:44.204Z,0.05
2023-02-06T21:48:10.945Z,0.12
2023-02-06T21:50:38.609Z,0.04
2023-02-06T21:53:05.425Z,-0.02
2023-02-06T21:55:32.453Z,0.09
2023-02-06T21:58:06.909Z,-0.10
2023-02-06T22:00:33.772Z,-0.10
2023-02-06T22:03:02.042Z,-0.08
2023-02-06T22:05:28.892Z,-0.03
2023-02-06T22:07:55.911Z,-0.13
2023-02-06T22:10:23.035Z,-0.12
2023-02-06T22:13:17.848Z,-0.17
2023-02-06T22:19:39.430Z,-0.55
2023-02-06T22:29:34.484Z,-0.46
2023-02-06T22:35:35.426Z,-0.57
2023-02-06T22:39:03.934Z,-0.64
2023-02-06T22:52:37.617Z,-0.79
2023-02-06T22:58:32.505Z,-0.95
2023-02-06T23:01:02.191Z,-0.99
2023-02-06T23:03:29.041Z,-1.17
2023-02-06T23:05:55.815Z,-1.11
2023-02-06T23:08:24.266Z,-1.17
2023-02-06T23:10:50.909Z,-1.12
2023-02-06T23:13:17.522Z,-1.27
2023-02-06T23:15:44.139Z,-1.08
2023-02-06T23:18:10.864Z,-1.20
2023-02-06T23:20:37.968Z,-1.05
2023-02-06T23:23:05.092Z,-1.04
2023-02-06T23:25:33.112Z,-1.13
2023-02-06T23:28:00.165Z,-1.22
2023-02-06T23:30:26.884Z,-1.38
2023-02-06T23:32:53.572Z,-1.33
2023-02-06T23:35:20.187Z,-1.45
2023-02-06T23:37:46.830Z,-1.41
2023-02-06T23:40:13.462Z,-1.49
2023-02-06T23:42:41.410Z,-1.61
2023-02-06T23:45:08.413Z,-1.53
2023-02-06T23:47:35.154Z,-1.45
2023-02-06T23:50:05.575Z,-1.51
2023-02-06T23:52:32.197Z,-1.49
2023-02-06T23:54:58.841Z,-1.55
2023-02-06T23:57:25.560Z,-1.40
2023-02-06T23:59:53.827Z,-1.46
